sensor_id;sensor_type;location;lat;lon;timestamp;P1;durP1;ratioP1;P2;durP2;ratioP2
69188;SDS011;56302;52.322;5.926;2022-12-07T00:00:52;5.85;;;1.92;;
69188;SDS011;56302;52.322;5.926;2022-12-07T00:03:18;5.28;;;1.88;;
69188;SDS011;56302;52.322;5.926;2022-12-07T00:05:44;7.43;;;1.80;;
69188;SDS011;56302;52.322;5.926;2022-12-07T00:08:09;6.43;;;1.27;;
69188;SDS011;56302;52.322;5.926;2022-12-07T00:10:35;5.13;;;1.73;;
69188;SDS011;56302;52.322;5.926;2022-12-07T00:13:00;4.33;;;1.63;;
69188;SDS011;56302;52.322;5.926;2022-12-07T00:15:26;4.93;;;1.50;;
69188;SDS011;56302;52.322;5.926;2022-12-07T00:17:51;5.63;;;1.55;;
69188;SDS011;56302;52.322;5.926;2022-12-07T00:20:17;5.37;;;1.50;;
69188;SDS011;56302;52.322;5.926;2022-12-07T00:22:42;4.37;;;1.93;;
69188;SDS011;56302;52.322;5.926;2022-12-07T00:25:08;6.50;;;1.70;;
69188;SDS011;56302;52.322;5.926;2022-12-07T00:27:33;4.45;;;1.40;;
69188;SDS011;56302;52.322;5.926;2022-12-07T00:29:59;4.23;;;1.40;;
69188;SDS011;56302;52.322;5.926;2022-12-07T00:32:24;4.60;;;1.77;;
69188;SDS011;56302;52.322;5.926;2022-12-07T00:34:51;5.90;;;1.30;;
69188;SDS011;56302;52.322;5.926;2022-12-07T00:37:16;4.50;;;1.40;;
69188;SDS011;56302;52.322;5.926;2022-12-07T00:39:41;4.63;;;1.63;;
69188;SDS011;56302;52.322;5.926;2022-12-07T00:42:07;6.27;;;1.60;;
69188;SDS011;56302;52.322;5.926;2022-12-07T00:44:33;5.82;;;1.42;;
69188;SDS011;56302;52.322;5.926;2022-12-07T00:46:58;4.78;;;1.52;;
69188;SDS011;56302;52.322;5.926;2022-12-07T00:49:24;5.30;;;1.57;;
69188;SDS011;56302;52.322;5.926;2022-12-07T00:51:49;5.67;;;1.43;;
69188;SDS011;56302;52.322;5.926;2022-12-07T00:54:14;5.97;;;1.58;;
69188;SDS011;56302;52.322;5.926;2022-12-07T00:56:40;10.27;;;1.50;;
69188;SDS011;56302;52.322;5.926;2022-12-07T00:59:05;8.13;;;1.30;;
69188;SDS011;56302;52.322;5.926;2022-12-07T01:01:32;4.75;;;1.25;;
69188;SDS011;56302;52.322;5.926;2022-12-07T01:03:59;7.15;;;1.30;;
69188;SDS011;56302;52.322;5.926;2022-12-07T01:06:26;7.15;;;1.40;;
69188;SDS011;56302;52.322;5.926;2022-12-07T01:08:52;5.63;;;1.27;;
69188;SDS011;56302;52.322;5.926;2022-12-07T01:11:19;6.68;;;1.00;;
69188;SDS011;56302;52.322;5.926;2022-12-07T01:13:47;5.07;;;1.50;;
69188;SDS011;56302;52.322;5.926;2022-12-07T01:16:15;7.30;;;1.50;;
69188;SDS011;56302;52.322;5.926;2022-12-07T01:18:41;5.35;;;1.40;;
69188;SDS011;56302;52.322;5.926;2022-12-07T01:21:11;9.63;;;1.40;;
69188;SDS011;56302;52.322;5.926;2022-12-07T01:23:39;10.27;;;1.52;;
69188;SDS011;56302;52.322;5.926;2022-12-07T01:26:06;4.50;;;1.30;;
69188;SDS011;56302;52.322;5.926;2022-12-07T01:28:34;7.57;;;1.55;;
69188;SDS011;56302;52.322;5.926;2022-12-07T01:31:01;8.00;;;1.20;;
69188;SDS011;56302;52.322;5.926;2022-12-07T01:33:29;9.77;;;1.60;;
69188;SDS011;56302;52.322;5.926;2022-12-07T01:36:01;9.15;;;1.58;;
69188;SDS011;56302;52.322;5.926;2022-12-07T01:38:31;8.27;;;1.20;;
69188;SDS011;56302;52.322;5.926;2022-12-07T01:40:58;7.30;;;1.60;;
69188;SDS011;56302;52.322;5.926;2022-12-07T01:43:25;5.70;;;1.30;;
69188;SDS011;56302;52.322;5.926;2022-12-07T01:45:52;7.17;;;1.63;;
69188;SDS011;56302;52.322;5.926;2022-12-07T01:48:20;7.63;;;1.52;;
69188;SDS011;56302;52.322;5.926;2022-12-07T01:50:51;7.15;;;1.30;;
69188;SDS011;56302;52.322;5.926;2022-12-07T01:53:18;8.65;;;1.48;;
69188;SDS011;56302;52.322;5.926;2022-12-07T01:55:45;6.78;;;1.05;;
69188;SDS011;56302;52.322;5.926;2022-12-07T01:58:14;8.07;;;1.30;;
69188;SDS011;56302;52.322;5.926;2022-12-07T02:00:41;6.80;;;1.20;;
69188;SDS011;56302;52.322;5.926;2022-12-07T02:03:18;5.90;;;1.30;;
69188;SDS011;56302;52.322;5.926;2022-12-07T02:05:49;10.77;;;1.50;;
69188;SDS011;56302;52.322;5.926;2022-12-07T02:08:16;9.47;;;1.60;;
69188;SDS011;56302;52.322;5.926;2022-12-07T02:10:42;4.13;;;1.10;;
69188;SDS011;56302;52.322;5.926;2022-12-07T02:13:13;10.43;;;1.35;;
69188;SDS011;56302;52.322;5.926;2022-12-07T02:16:02;6.00;;;1.20;;
69188;SDS011;56302;52.322;5.926;2022-12-07T02:18:55;6.55;;;1.25;;
69188;SDS011;56302;52.322;5.926;2022-12-07T02:21:48;7.93;;;1.57;;
69188;SDS011;56302;52.322;5.926;2022-12-07T02:24:30;7.60;;;1.25;;
69188;SDS011;56302;52.322;5.926;2022-12-07T02:30:13;7.40;;;1.55;;
69188;SDS011;56302;52.322;5.926;2022-12-07T02:35:18;5.97;;;1.20;;
69188;SDS011;56302;52.322;5.926;2022-12-07T02:37:49;10.95;;;1.60;;
69188;SDS011;56302;52.322;5.926;2022-12-07T02:46:11;7.80;;;1.30;;
69188;SDS011;56302;52.322;5.926;2022-12-07T02:48:43;6.60;;;1.10;;
69188;SDS011;56302;52.322;5.926;2022-12-07T02:51:12;8.55;;;1.35;;
69188;SDS011;56302;52.322;5.926;2022-12-07T02:53:38;10.48;;;1.42;;
69188;SDS011;56302;52.322;5.926;2022-12-07T02:56:07;7.75;;;1.13;;
69188;SDS011;56302;52.322;5.926;2022-12-07T02:59:21;8.52;;;1.23;;
69188;SDS011;56302;52.322;5.926;2022-12-07T03:02:10;12.30;;;1.10;;
69188;SDS011;56302;52.322;5.926;2022-12-07T03:04:49;8.98;;;1.25;;
69188;SDS011;56302;52.322;5.926;2022-12-07T03:18:30;4.13;;;1.00;;
69188;SDS011;56302;52.322;5.926;2022-12-07T03:21:02;9.37;;;1.20;;
69188;SDS011;56302;52.322;5.926;2022-12-07T03:23:33;5.85;;;1.10;;
69188;SDS011;56302;52.322;5.926;2022-12-07T03:26:02;9.20;;;1.30;;
69188;SDS011;56302;52.322;5.926;2022-12-07T03:28:34;6.95;;;1.17;;
69188;SDS011;56302;52.322;5.926;2022-12-07T03:31:06;4.60;;;1.27;;
69188;SDS011;56302;52.322;5.926;2022-12-07T03:36:20;6.97;;;1.10;;
69188;SDS011;56302;52.322;5.926;2022-12-07T03:38:59;4.88;;;0.90;;
69188;SDS011;56302;52.322;5.926;2022-12-07T03:41:32;6.63;;;0.93;;
69188;SDS011;56302;52.322;5.926;2022-12-07T03:44:01;5.82;;;0.80;;
69188;SDS011;56302;52.322;5.926;2022-12-07T03:46:35;4.90;;;1.27;;
69188;SDS011;56302;52.322;5.926;2022-12-07T03:49:10;9.75;;;1.02;;
69188;SDS011;56302;52.322;5.926;2022-12-07T03:54:59;8.17;;;0.90;;
69188;SDS011;56302;52.322;5.926;2022-12-07T03:57:26;4.28;;;0.80;;
69188;SDS011;56302;52.322;5.926;2022-12-07T03:59:54;6.10;;;1.20;;
69188;SDS011;56302;52.322;5.926;2022-12-07T04:02:21;3.67;;;0.75;;
69188;SDS011;56302;52.322;5.926;2022-12-07T04:04:48;4.38;;;0.70;;
69188;SDS011;56302;52.322;5.926;2022-12-07T04:07:14;6.03;;;1.27;;
69188;SDS011;56302;52.322;5.926;2022-12-07T04:09:40;3.92;;;0.95;;
69188;SDS011;56302;52.322;5.926;2022-12-07T04:12:05;3.37;;;0.90;;
69188;SDS011;56302;52.322;5.926;2022-12-07T04:14:31;3.03;;;0.90;;
69188;SDS011;56302;52.322;5.926;2022-12-07T04:16:57;4.60;;;1.02;;
69188;SDS011;56302;52.322;5.926;2022-12-07T04:19:30;6.65;;;0.70;;
69188;SDS011;56302;52.322;5.926;2022-12-07T04:21:58;5.28;;;0.90;;
69188;SDS011;56302;52.322;5.926;2022-12-07T04:24:26;7.72;;;1.00;;
69188;SDS011;56302;52.322;5.926;2022-12-07T04:26:52;5.47;;;0.80;;
69188;SDS011;56302;52.322;5.926;2022-12-07T04:29:18;6.60;;;1.07;;
69188;SDS011;56302;52.322;5.926;2022-12-07T04:31:43;4.57;;;0.85;;
69188;SDS011;56302;52.322;5.926;2022-12-07T04:34:09;6.13;;;1.13;;
69188;SDS011;56302;52.322;5.926;2022-12-07T04:36:36;5.53;;;0.75;;
69188;SDS011;56302;52.322;5.926;2022-12-07T04:39:02;9.73;;;0.93;;
69188;SDS011;56302;52.322;5.926;2022-12-07T04:41:28;7.57;;;0.90;;
69188;SDS011;56302;52.322;5.926;2022-12-07T04:46:24;7.00;;;1.10;;
69188;SDS011;56302;52.322;5.926;2022-12-07T04:48:51;8.77;;;1.05;;
69188;SDS011;56302;52.322;5.926;2022-12-07T04:51:18;5.65;;;1.40;;
69188;SDS011;56302;52.322;5.926;2022-12-07T04:53:46;5.90;;;0.80;;
69188;SDS011;56302;52.322;5.926;2022-12-07T04:56:12;6.50;;;1.00;;
69188;SDS011;56302;52.322;5.926;2022-12-07T04:58:39;8.52;;;1.30;;
69188;SDS011;56302;52.322;5.926;2022-12-07T05:01:05;6.20;;;1.00;;
69188;SDS011;56302;52.322;5.926;2022-12-07T05:03:31;7.93;;;0.90;;
69188;SDS011;56302;52.322;5.926;2022-12-07T05:05:57;7.37;;;1.10;;
69188;SDS011;56302;52.322;5.926;2022-12-07T05:08:22;6.30;;;0.98;;
69188;SDS011;56302;52.322;5.926;2022-12-07T05:10:48;6.40;;;1.63;;
69188;SDS011;56302;52.322;5.926;2022-12-07T05:13:14;8.07;;;1.15;;
69188;SDS011;56302;52.322;5.926;2022-12-07T05:15:40;7.73;;;0.93;;
69188;SDS011;56302;52.322;5.926;2022-12-07T05:18:05;9.77;;;1.63;;
69188;SDS011;56302;52.322;5.926;2022-12-07T05:20:31;6.22;;;1.00;;
69188;SDS011;56302;52.322;5.926;2022-12-07T05:22:57;5.00;;;0.93;;
69188;SDS011;56302;52.322;5.926;2022-12-07T05:25:23;5.40;;;0.60;;
69188;SDS011;56302;52.322;5.926;2022-12-07T05:27:49;9.07;;;1.08;;
69188;SDS011;56302;52.322;5.926;2022-12-07T05:30:14;8.57;;;1.02;;
69188;SDS011;56302;52.322;5.926;2022-12-07T05:32:40;6.17;;;0.90;;
69188;SDS011;56302;52.322;5.926;2022-12-07T05:35:05;5.32;;;0.93;;
69188;SDS011;56302;52.322;5.926;2022-12-07T05:37:31;6.60;;;0.90;;
69188;SDS011;56302;52.322;5.926;2022-12-07T05:39:57;5.50;;;0.70;;
69188;SDS011;56302;52.322;5.926;2022-12-07T05:42:22;6.87;;;1.43;;
69188;SDS011;56302;52.322;5.926;2022-12-07T05:44:48;6.30;;;0.70;;
69188;SDS011;56302;52.322;5.926;2022-12-07T05:47:13;4.45;;;0.88;;
69188;SDS011;56302;52.322;5.926;2022-12-07T05:49:39;6.63;;;1.00;;
69188;SDS011;56302;52.322;5.926;2022-12-07T05:52:05;4.57;;;1.00;;
69188;SDS011;56302;52.322;5.926;2022-12-07T05:54:31;5.17;;;1.10;;
69188;SDS011;56302;52.322;5.926;2022-12-07T05:56:57;7.38;;;0.80;;
69188;SDS011;56302;52.322;5.926;2022-12-07T05:59:23;3.80;;;0.98;;
69188;SDS011;56302;52.322;5.926;2022-12-07T06:04:20;3.78;;;0.80;;
69188;SDS011;56302;52.322;5.926;2022-12-07T06:06:46;6.43;;;1.00;;
69188;SDS011;56302;52.322;5.926;2022-12-07T06:09:12;4.53;;;0.80;;
69188;SDS011;56302;52.322;5.926;2022-12-07T06:11:38;8.07;;;0.87;;
69188;SDS011;56302;52.322;5.926;2022-12-07T06:14:23;4.72;;;0.85;;
69188;SDS011;56302;52.322;5.926;2022-12-07T06:16:49;3.13;;;1.00;;
69188;SDS011;56302;52.322;5.926;2022-12-07T06:19:15;3.72;;;1.00;;
69188;SDS011;56302;52.322;5.926;2022-12-07T06:21:40;6.97;;;1.00;;
69188;SDS011;56302;52.322;5.926;2022-12-07T06:24:06;9.17;;;1.07;;
69188;SDS011;56302;52.322;5.926;2022-12-07T06:26:32;8.10;;;1.10;;
69188;SDS011;56302;52.322;5.926;2022-12-07T06:28:58;4.47;;;1.07;;
69188;SDS011;56302;52.322;5.926;2022-12-07T06:31:23;8.10;;;1.08;;
69188;SDS011;56302;52.322;5.926;2022-12-07T06:33:49;5.43;;;1.23;;
69188;SDS011;56302;52.322;5.926;2022-12-07T06:36:14;8.97;;;1.00;;
69188;SDS011;56302;52.322;5.926;2022-12-07T06:38:40;5.32;;;0.88;;
69188;SDS011;56302;52.322;5.926;2022-12-07T06:41:06;7.47;;;1.13;;
69188;SDS011;56302;52.322;5.926;2022-12-07T06:43:31;11.77;;;1.15;;
69188;SDS011;56302;52.322;5.926;2022-12-07T06:45:57;9.60;;;1.30;;
69188;SDS011;56302;52.322;5.926;2022-12-07T06:48:23;6.22;;;0.93;;
69188;SDS011;56302;52.322;5.926;2022-12-07T06:50:48;7.73;;;1.13;;
69188;SDS011;56302;52.322;5.926;2022-12-07T06:53:14;5.57;;;1.07;;
69188;SDS011;56302;52.322;5.926;2022-12-07T06:55:40;4.57;;;1.08;;
69188;SDS011;56302;52.322;5.926;2022-12-07T06:58:06;5.27;;;0.83;;
69188;SDS011;56302;52.322;5.926;2022-12-07T07:00:31;5.97;;;1.15;;
69188;SDS011;56302;52.322;5.926;2022-12-07T07:02:59;4.82;;;0.75;;
69188;SDS011;56302;52.322;5.926;2022-12-07T07:05:25;7.50;;;0.90;;
69188;SDS011;56302;52.322;5.926;2022-12-07T07:07:51;6.38;;;1.00;;
69188;SDS011;56302;52.322;5.926;2022-12-07T07:10:17;6.13;;;0.70;;
69188;SDS011;56302;52.322;5.926;2022-12-07T07:12:42;8.13;;;0.97;;
69188;SDS011;56302;52.322;5.926;2022-12-07T07:15:08;6.32;;;1.00;;
69188;SDS011;56302;52.322;5.926;2022-12-07T07:17:34;4.93;;;1.17;;
69188;SDS011;56302;52.322;5.926;2022-12-07T07:20:00;6.37;;;1.00;;
69188;SDS011;56302;52.322;5.926;2022-12-07T07:22:25;6.87;;;0.90;;
69188;SDS011;56302;52.322;5.926;2022-12-07T07:24:51;6.43;;;0.95;;
69188;SDS011;56302;52.322;5.926;2022-12-07T07:27:16;8.33;;;1.17;;
69188;SDS011;56302;52.322;5.926;2022-12-07T07:29:42;7.37;;;1.03;;
69188;SDS011;56302;52.322;5.926;2022-12-07T07:32:07;4.60;;;1.03;;
69188;SDS011;56302;52.322;5.926;2022-12-07T07:34:33;4.82;;;0.98;;
69188;SDS011;56302;52.322;5.926;2022-12-07T07:36:59;5.43;;;0.97;;
69188;SDS011;56302;52.322;5.926;2022-12-07T07:39:24;9.13;;;1.08;;
69188;SDS011;56302;52.322;5.926;2022-12-07T07:41:50;7.77;;;1.10;;
69188;SDS011;56302;52.322;5.926;2022-12-07T07:44:15;5.67;;;1.13;;
69188;SDS011;56302;52.322;5.926;2022-12-07T07:46:41;5.73;;;1.70;;
69188;SDS011;56302;52.322;5.926;2022-12-07T07:49:06;7.78;;;1.27;;
69188;SDS011;56302;52.322;5.926;2022-12-07T07:51:33;4.07;;;0.70;;
69188;SDS011;56302;52.322;5.926;2022-12-07T07:53:58;3.33;;;0.90;;
69188;SDS011;56302;52.322;5.926;2022-12-07T07:56:24;5.47;;;0.97;;
69188;SDS011;56302;52.322;5.926;2022-12-07T07:58:52;4.97;;;0.87;;
69188;SDS011;56302;52.322;5.926;2022-12-07T08:01:18;9.98;;;1.50;;
69188;SDS011;56302;52.322;5.926;2022-12-07T08:03:44;6.80;;;1.10;;
69188;SDS011;56302;52.322;5.926;2022-12-07T08:06:13;7.10;;;1.00;;
69188;SDS011;56302;52.322;5.926;2022-12-07T08:08:38;9.50;;;1.20;;
69188;SDS011;56302;52.322;5.926;2022-12-07T08:11:07;6.73;;;1.23;;
69188;SDS011;56302;52.322;5.926;2022-12-07T08:13:33;6.68;;;0.90;;
69188;SDS011;56302;52.322;5.926;2022-12-07T08:16:03;6.53;;;1.23;;
69188;SDS011;56302;52.322;5.926;2022-12-07T08:18:37;4.03;;;1.02;;
69188;SDS011;56302;52.322;5.926;2022-12-07T08:21:04;7.43;;;1.08;;
69188;SDS011;56302;52.322;5.926;2022-12-07T08:23:30;5.17;;;1.00;;
69188;SDS011;56302;52.322;5.926;2022-12-07T08:26:00;5.65;;;1.08;;
69188;SDS011;56302;52.322;5.926;2022-12-07T08:28:30;6.40;;;1.00;;
69188;SDS011;56302;52.322;5.926;2022-12-07T08:30:59;7.93;;;1.02;;
69188;SDS011;56302;52.322;5.926;2022-12-07T08:33:26;6.70;;;1.00;;
69188;SDS011;56302;52.322;5.926;2022-12-07T08:35:52;4.60;;;0.88;;
69188;SDS011;56302;52.322;5.926;2022-12-07T08:38:17;6.57;;;1.10;;
69188;SDS011;56302;52.322;5.926;2022-12-07T08:40:43;6.60;;;0.93;;
69188;SDS011;56302;52.322;5.926;2022-12-07T08:43:08;7.93;;;1.30;;
69188;SDS011;56302;52.322;5.926;2022-12-07T08:45:34;5.23;;;1.00;;
69188;SDS011;56302;52.322;5.926;2022-12-07T08:48:07;5.28;;;0.70;;
69188;SDS011;56302;52.322;5.926;2022-12-07T08:50:35;3.92;;;0.90;;
69188;SDS011;56302;52.322;5.926;2022-12-07T08:53:02;8.90;;;1.40;;
69188;SDS011;56302;52.322;5.926;2022-12-07T08:55:29;5.47;;;1.20;;
69188;SDS011;56302;52.322;5.926;2022-12-07T08:57:56;4.88;;;0.95;;
69188;SDS011;56302;52.322;5.926;2022-12-07T09:00:23;5.28;;;1.00;;
69188;SDS011;56302;52.322;5.926;2022-12-07T09:02:48;5.20;;;1.00;;
69188;SDS011;56302;52.322;5.926;2022-12-07T09:05:14;8.85;;;1.35;;
69188;SDS011;56302;52.322;5.926;2022-12-07T09:07:40;5.47;;;1.40;;
69188;SDS011;56302;52.322;5.926;2022-12-07T09:10:07;5.15;;;1.35;;
69188;SDS011;56302;52.322;5.926;2022-12-07T09:12:33;5.25;;;1.60;;
69188;SDS011;56302;52.322;5.926;2022-12-07T09:14:58;6.40;;;1.33;;
69188;SDS011;56302;52.322;5.926;2022-12-07T09:17:25;5.75;;;1.38;;
69188;SDS011;56302;52.322;5.926;2022-12-07T09:19:51;7.67;;;1.50;;
69188;SDS011;56302;52.322;5.926;2022-12-07T09:22:16;10.18;;;1.38;;
69188;SDS011;56302;52.322;5.926;2022-12-07T09:24:42;8.23;;;1.33;;
69188;SDS011;56302;52.322;5.926;2022-12-07T09:27:09;7.18;;;1.30;;
69188;SDS011;56302;52.322;5.926;2022-12-07T09:29:34;6.13;;;1.27;;
69188;SDS011;56302;52.322;5.926;2022-12-07T09:32:00;8.73;;;1.60;;
69188;SDS011;56302;52.322;5.926;2022-12-07T09:34:26;14.30;;;1.30;;
69188;SDS011;56302;52.322;5.926;2022-12-07T09:36:51;11.00;;;1.10;;
69188;SDS011;56302;52.322;5.926;2022-12-07T09:39:17;8.07;;;1.20;;
69188;SDS011;56302;52.322;5.926;2022-12-07T09:41:43;10.20;;;1.13;;
69188;SDS011;56302;52.322;5.926;2022-12-07T09:44:12;7.80;;;1.27;;
69188;SDS011;56302;52.322;5.926;2022-12-07T09:46:40;4.80;;;1.40;;
69188;SDS011;56302;52.322;5.926;2022-12-07T09:49:12;5.93;;;1.20;;
69188;SDS011;56302;52.322;5.926;2022-12-07T09:51:41;7.85;;;1.23;;
69188;SDS011;56302;52.322;5.926;2022-12-07T09:54:08;8.82;;;1.60;;
69188;SDS011;56302;52.322;5.926;2022-12-07T09:56:37;11.47;;;1.40;;
69188;SDS011;56302;52.322;5.926;2022-12-07T09:59:03;8.27;;;1.40;;
69188;SDS011;56302;52.322;5.926;2022-12-07T10:01:32;7.83;;;1.43;;
69188;SDS011;56302;52.322;5.926;2022-12-07T10:04:12;8.50;;;1.40;;
69188;SDS011;56302;52.322;5.926;2022-12-07T10:06:41;7.63;;;1.27;;
69188;SDS011;56302;52.322;5.926;2022-12-07T10:09:11;9.93;;;1.27;;
69188;SDS011;56302;52.322;5.926;2022-12-07T10:14:35;7.07;;;1.50;;
69188;SDS011;56302;52.322;5.926;2022-12-07T10:17:02;4.53;;;1.20;;
69188;SDS011;56302;52.322;5.926;2022-12-07T10:19:47;7.80;;;1.67;;
69188;SDS011;56302;52.322;5.926;2022-12-07T10:22:14;8.47;;;1.20;;
69188;SDS011;56302;52.322;5.926;2022-12-07T10:24:42;7.78;;;1.40;;
69188;SDS011;56302;52.322;5.926;2022-12-07T10:27:17;7.82;;;1.20;;
69188;SDS011;56302;52.322;5.926;2022-12-07T10:29:50;12.07;;;1.77;;
69188;SDS011;56302;52.322;5.926;2022-12-07T10:34:42;9.63;;;1.38;;
69188;SDS011;56302;52.322;5.926;2022-12-07T10:42:17;6.82;;;1.60;;
69188;SDS011;56302;52.322;5.926;2022-12-07T10:45:12;9.00;;;1.30;;
69188;SDS011;56302;52.322;5.926;2022-12-07T11:01:25;10.73;;;1.67;;
69188;SDS011;56302;52.322;5.926;2022-12-07T11:06:47;8.98;;;1.17;;
69188;SDS011;56302;52.322;5.926;2022-12-07T11:09:26;8.65;;;1.45;;
69188;SDS011;56302;52.322;5.926;2022-12-07T11:14:54;6.88;;;1.10;;
69188;SDS011;56302;52.322;5.926;2022-12-07T11:25:56;5.07;;;1.03;;
69188;SDS011;56302;52.322;5.926;2022-12-07T11:33:53;7.38;;;1.23;;
69188;SDS011;56302;52.322;5.926;2022-12-07T11:41:57;4.43;;;1.00;;
69188;SDS011;56302;52.322;5.926;2022-12-07T11:47:00;6.00;;;1.42;;
69188;SDS011;56302;52.322;5.926;2022-12-07T11:49:42;6.72;;;1.05;;
69188;SDS011;56302;52.322;5.926;2022-12-07T11:52:15;6.05;;;1.05;;
69188;SDS011;56302;52.322;5.926;2022-12-07T11:54:50;5.97;;;1.20;;
69188;SDS011;56302;52.322;5.926;2022-12-07T11:57:39;5.13;;;1.07;;
69188;SDS011;56302;52.322;5.926;2022-12-07T12:00:12;6.25;;;1.20;;
69188;SDS011;56302;52.322;5.926;2022-12-07T12:02:47;8.70;;;1.50;;
69188;SDS011;56302;52.322;5.926;2022-12-07T12:05:26;10.05;;;1.30;;
69188;SDS011;56302;52.322;5.926;2022-12-07T12:08:02;9.85;;;1.52;;
69188;SDS011;56302;52.322;5.926;2022-12-07T12:22:17;6.00;;;0.80;;
69188;SDS011;56302;52.322;5.926;2022-12-07T12:24:46;7.30;;;1.03;;
69188;SDS011;56302;52.322;5.926;2022-12-07T12:27:26;7.32;;;1.10;;
69188;SDS011;56302;52.322;5.926;2022-12-07T12:29:56;7.70;;;1.20;;
69188;SDS011;56302;52.322;5.926;2022-12-07T12:32:41;4.45;;;0.80;;
69188;SDS011;56302;52.322;5.926;2022-12-07T12:35:21;5.32;;;1.63;;
69188;SDS011;56302;52.322;5.926;2022-12-07T12:37:53;8.10;;;1.23;;
69188;SDS011;56302;52.322;5.926;2022-12-07T12:42:52;10.10;;;1.10;;
69188;SDS011;56302;52.322;5.926;2022-12-07T12:47:56;11.05;;;1.20;;
69188;SDS011;56302;52.322;5.926;2022-12-07T12:50:26;5.65;;;0.98;;
69188;SDS011;56302;52.322;5.926;2022-12-07T12:53:35;4.95;;;0.90;;
69188;SDS011;56302;52.322;5.926;2022-12-07T12:56:11;8.93;;;0.90;;
69188;SDS011;56302;52.322;5.926;2022-12-07T12:59:16;7.22;;;1.40;;
69188;SDS011;56302;52.322;5.926;2022-12-07T13:01:46;6.57;;;1.00;;
69188;SDS011;56302;52.322;5.926;2022-12-07T13:04:27;10.63;;;1.17;;
69188;SDS011;56302;52.322;5.926;2022-12-07T13:06:59;3.75;;;1.00;;
69188;SDS011;56302;52.322;5.926;2022-12-07T13:09:32;9.47;;;1.23;;
69188;SDS011;56302;52.322;5.926;2022-12-07T13:12:11;6.97;;;1.08;;
69188;SDS011;56302;52.322;5.926;2022-12-07T13:20:07;7.20;;;1.02;;
69188;SDS011;56302;52.322;5.926;2022-12-07T13:25:11;5.82;;;1.30;;
69188;SDS011;56302;52.322;5.926;2022-12-07T13:27:50;3.35;;;0.80;;
69188;SDS011;56302;52.322;5.926;2022-12-07T13:30:26;5.20;;;1.17;;
69188;SDS011;56302;52.322;5.926;2022-12-07T13:32:54;8.45;;;1.20;;
69188;SDS011;56302;52.322;5.926;2022-12-07T13:35:35;4.95;;;0.90;;
69188;SDS011;56302;52.322;5.926;2022-12-07T13:38:05;9.88;;;1.00;;
69188;SDS011;56302;52.322;5.926;2022-12-07T13:40:41;7.25;;;0.90;;
69188;SDS011;56302;52.322;5.926;2022-12-07T13:43:11;5.27;;;0.97;;
69188;SDS011;56302;52.322;5.926;2022-12-07T13:45:39;6.78;;;0.90;;
69188;SDS011;56302;52.322;5.926;2022-12-07T13:48:16;8.93;;;1.17;;
69188;SDS011;56302;52.322;5.926;2022-12-07T13:50:56;4.15;;;0.80;;
69188;SDS011;56302;52.322;5.926;2022-12-07T13:53:23;5.63;;;1.10;;
69188;SDS011;56302;52.322;5.926;2022-12-07T13:55:49;6.57;;;1.10;;
69188;SDS011;56302;52.322;5.926;2022-12-07T13:58:15;4.20;;;0.70;;
69188;SDS011;56302;52.322;5.926;2022-12-07T14:00:41;7.97;;;1.17;;
69188;SDS011;56302;52.322;5.926;2022-12-07T14:05:42;6.30;;;0.98;;
69188;SDS011;56302;52.322;5.926;2022-12-07T14:16:00;8.02;;;1.27;;
69188;SDS011;56302;52.322;5.926;2022-12-07T14:18:29;6.72;;;0.98;;
69188;SDS011;56302;52.322;5.926;2022-12-07T14:21:04;7.93;;;1.35;;
69188;SDS011;56302;52.322;5.926;2022-12-07T14:23:43;5.10;;;0.88;;
69188;SDS011;56302;52.322;5.926;2022-12-07T14:26:13;6.07;;;0.90;;
69188;SDS011;56302;52.322;5.926;2022-12-07T14:28:40;5.95;;;0.93;;
69188;SDS011;56302;52.322;5.926;2022-12-07T14:31:10;3.60;;;1.40;;
69188;SDS011;56302;52.322;5.926;2022-12-07T14:33:38;5.93;;;0.88;;
69188;SDS011;56302;52.322;5.926;2022-12-07T14:36:05;2.87;;;0.70;;
69188;SDS011;56302;52.322;5.926;2022-12-07T14:38:30;5.57;;;0.70;;
69188;SDS011;56302;52.322;5.926;2022-12-07T14:40:56;3.37;;;0.70;;
69188;SDS011;56302;52.322;5.926;2022-12-07T14:43:42;5.10;;;0.80;;
69188;SDS011;56302;52.322;5.926;2022-12-07T14:46:08;4.47;;;0.90;;
69188;SDS011;56302;52.322;5.926;2022-12-07T14:48:34;3.83;;;0.90;;
69188;SDS011;56302;52.322;5.926;2022-12-07T14:50:59;4.05;;;0.73;;
69188;SDS011;56302;52.322;5.926;2022-12-07T14:53:28;2.97;;;0.60;;
69188;SDS011;56302;52.322;5.926;2022-12-07T14:55:58;4.30;;;0.80;;
69188;SDS011;56302;52.322;5.926;2022-12-07T14:58:24;5.13;;;1.10;;
69188;SDS011;56302;52.322;5.926;2022-12-07T15:00:49;2.50;;;0.70;;
69188;SDS011;56302;52.322;5.926;2022-12-07T15:03:15;4.95;;;0.88;;
69188;SDS011;56302;52.322;5.926;2022-12-07T15:05:40;4.27;;;0.70;;
69188;SDS011;56302;52.322;5.926;2022-12-07T15:08:08;2.13;;;0.65;;
69188;SDS011;56302;52.322;5.926;2022-12-07T15:10:34;2.40;;;0.67;;
69188;SDS011;56302;52.322;5.926;2022-12-07T15:13:03;2.15;;;0.70;;
69188;SDS011;56302;52.322;5.926;2022-12-07T15:15:48;3.90;;;0.70;;
69188;SDS011;56302;52.322;5.926;2022-12-07T15:18:15;3.45;;;0.75;;
69188;SDS011;56302;52.322;5.926;2022-12-07T15:20:42;4.55;;;0.93;;
69188;SDS011;56302;52.322;5.926;2022-12-07T15:23:07;3.77;;;1.00;;
69188;SDS011;56302;52.322;5.926;2022-12-07T15:25:34;2.67;;;0.88;;
69188;SDS011;56302;52.322;5.926;2022-12-07T15:27:59;7.13;;;1.00;;
69188;SDS011;56302;52.322;5.926;2022-12-07T15:30:25;5.30;;;1.80;;
69188;SDS011;56302;52.322;5.926;2022-12-07T15:32:51;7.70;;;1.30;;
69188;SDS011;56302;52.322;5.926;2022-12-07T15:35:17;5.82;;;1.70;;
69188;SDS011;56302;52.322;5.926;2022-12-07T15:37:43;7.35;;;2.08;;
69188;SDS011;56302;52.322;5.926;2022-12-07T15:40:09;5.90;;;2.53;;
69188;SDS011;56302;52.322;5.926;2022-12-07T15:42:35;7.72;;;2.00;;
69188;SDS011;56302;52.322;5.926;2022-12-07T15:45:02;8.05;;;2.10;;
69188;SDS011;56302;52.322;5.926;2022-12-07T15:47:29;8.75;;;3.00;;
69188;SDS011;56302;52.322;5.926;2022-12-07T15:50:03;5.03;;;2.83;;
69188;SDS011;56302;52.322;5.926;2022-12-07T15:52:30;7.40;;;3.30;;
69188;SDS011;56302;52.322;5.926;2022-12-07T15:54:55;9.60;;;3.22;;
69188;SDS011;56302;52.322;5.926;2022-12-07T15:57:21;5.13;;;2.00;;
69188;SDS011;56302;52.322;5.926;2022-12-07T15:59:47;5.65;;;1.77;;
69188;SDS011;56302;52.322;5.926;2022-12-07T16:02:12;5.45;;;1.35;;
69188;SDS011;56302;52.322;5.926;2022-12-07T16:04:38;5.00;;;1.40;;
69188;SDS011;56302;52.322;5.926;2022-12-07T16:07:03;5.10;;;1.70;;
69188;SDS011;56302;52.322;5.926;2022-12-07T16:09:29;6.60;;;1.67;;
69188;SDS011;56302;52.322;5.926;2022-12-07T16:11:55;4.50;;;1.50;;
69188;SDS011;56302;52.322;5.926;2022-12-07T16:14:21;8.95;;;1.67;;
69188;SDS011;56302;52.322;5.926;2022-12-07T16:16:46;4.85;;;1.20;;
69188;SDS011;56302;52.322;5.926;2022-12-07T16:19:12;5.87;;;1.30;;
69188;SDS011;56302;52.322;5.926;2022-12-07T16:21:38;4.32;;;1.30;;
69188;SDS011;56302;52.322;5.926;2022-12-07T16:24:04;4.88;;;1.25;;
69188;SDS011;56302;52.322;5.926;2022-12-07T16:26:30;5.30;;;1.40;;
69188;SDS011;56302;52.322;5.926;2022-12-07T16:28:56;7.67;;;1.50;;
69188;SDS011;56302;52.322;5.926;2022-12-07T16:31:22;7.22;;;1.30;;
69188;SDS011;56302;52.322;5.926;2022-12-07T16:33:50;5.07;;;1.30;;
69188;SDS011;56302;52.322;5.926;2022-12-07T16:36:18;7.50;;;1.48;;
69188;SDS011;56302;52.322;5.926;2022-12-07T16:38:43;10.00;;;1.55;;
69188;SDS011;56302;52.322;5.926;2022-12-07T16:41:09;5.60;;;1.60;;
69188;SDS011;56302;52.322;5.926;2022-12-07T16:43:35;5.30;;;1.70;;
69188;SDS011;56302;52.322;5.926;2022-12-07T16:46:02;7.18;;;1.70;;
69188;SDS011;56302;52.322;5.926;2022-12-07T16:48:28;7.75;;;1.73;;
69188;SDS011;56302;52.322;5.926;2022-12-07T16:50:53;5.07;;;1.50;;
69188;SDS011;56302;52.322;5.926;2022-12-07T16:53:20;3.47;;;1.20;;
69188;SDS011;56302;52.322;5.926;2022-12-07T16:55:47;5.15;;;1.50;;
69188;SDS011;56302;52.322;5.926;2022-12-07T16:58:13;4.50;;;1.33;;